Weather at Regions Hospital Heliport

Public forecast

Using degrees Fahrenheit for public forecast. Weather courtesy of forecast.io.

Closest aviation weather report (METAR) to Regions Hospital Heliport

Closest report is St Paul Downtown Holman Field, 2.0 nm (3.7 km) SE. Retrieved 2021/07/27 23:53 UTC (1 hour ago):

KSTP 272353Z 12006KT 10SM FEW049 BKN060 33/23 A2993 RMK AO2 SLP128 T03280233 10333 20311 55005

Closest aviation forecast (TAF) to Regions Hospital Heliport

Forecast is more than 12 hours old.

Closest forecast is St Paul Downtown Holman Field, 2.0 nm (3.7 km) SE. Retrieved 2018/02/05 00:21 UTC (3 years ago):

TAF KSTP 052320Z 0600/0624 27006KT P6SM FEW020 FM060100 30010KT P6SM FEW100 FM061600 25004KT P6SM SCT250 FM061900 21006KT P6SM BKN250 AMD NOT SKED